Time;durP1;ratioP1;P1;durP2;ratioP2;P2;SDS_P1;SDS_P2;PMS_P1;PMS_P2;Temp;Humidity;BMP_temperature;BMP_pressure;BME280_temperature;BME280_humidity;BME280_pressure;Samples;Min_cycle;Max_cycle;Signal;HPM_P1;HPM_P2
2023/06/07 00:00:15;;;;;;;12.60;7.10;;;;;;;18.25;58.36;101315.97;835605;23;1906;-78
2023/06/07 00:00:36;;;;;;;14.13;6.88;;;;;;;18.24;58.30;101315.06;838754;23;1363;-78
2023/06/07 00:00:59;;;;;;;12.30;6.93;;;;;;;18.27;58.29;101323.03;841185;23;982;-78
2023/06/07 00:01:20;;;;;;;13.30;7.25;;;;;;;18.26;58.02;101323.88;839111;23;1112;-78
2023/06/07 00:01:42;;;;;;;11.70;7.20;;;;;;;18.21;58.21;101321.22;839925;23;1262;-78
2023/06/07 00:02:04;;;;;;;14.95;6.90;;;;;;;18.21;58.24;101323.00;840794;23;1108;-78
2023/06/07 00:02:26;;;;;;;15.00;7.22;;;;;;;18.18;58.16;101320.31;840000;23;1428;-79
2023/06/07 00:02:47;;;;;;;14.77;7.38;;;;;;;18.23;58.41;101323.88;845033;23;1120;-78
2023/06/07 00:03:09;;;;;;;12.98;7.25;;;;;;;18.19;58.26;101327.38;839275;23;1107;-78
2023/06/07 00:03:30;;;;;;;12.65;6.82;;;;;;;18.23;58.45;101329.16;841409;23;835;-79
2023/06/07 00:03:51;;;;;;;12.68;6.75;;;;;;;18.18;58.37;101315.94;841283;23;988;-78
2023/06/07 00:04:11;;;;;;;11.90;6.90;;;;;;;18.17;58.39;101324.72;839681;23;1051;-79
2023/06/07 00:04:32;;;;;;;12.45;6.70;;;;;;;18.21;58.36;101320.34;845421;23;778;-78
2023/06/07 00:04:53;;;;;;;12.02;6.93;;;;;;;18.21;58.45;101326.50;839254;23;1192;-78
2023/06/07 00:05:14;;;;;;;11.70;6.80;;;;;;;18.21;58.24;101325.63;841193;23;1000;-80
2023/06/07 00:05:37;;;;;;;11.35;7.20;;;;;;;18.18;58.44;101322.94;841386;23;817;-78
2023/06/07 00:06:00;;;;;;;10.45;7.10;;;;;;;18.16;58.43;101322.97;839807;23;1286;-78
2023/06/07 00:06:21;;;;;;;11.55;7.45;;;;;;;18.18;58.19;101331.78;835095;23;1396;-79
2023/06/07 00:06:42;;;;;;;11.10;7.40;;;;;;;18.16;58.40;101330.00;837334;23;752;-78
2023/06/07 00:07:03;;;;;;;11.73;7.60;;;;;;;18.19;58.39;101333.53;834805;23;1216;-79
2023/06/07 00:07:23;;;;;;;11.40;7.20;;;;;;;18.21;58.36;101342.34;837235;23;755;-79
2023/06/07 00:07:44;;;;;;;13.38;7.22;;;;;;;18.15;58.52;101320.31;835845;23;1320;-79
2023/06/07 00:08:06;;;;;;;13.40;7.40;;;;;;;18.24;58.36;101341.47;837125;23;1115;-79
2023/06/07 00:08:28;;;;;;;13.13;7.70;;;;;;;18.22;58.23;101335.31;839780;23;1273;-78
2023/06/07 00:08:49;;;;;;;11.07;7.28;;;;;;;18.17;58.21;101329.13;835266;23;1246;-79
2023/06/07 00:09:10;;;;;;;9.20;6.70;;;;;;;18.18;58.31;101325.59;841047;23;1096;-79
2023/06/07 00:09:31;;;;;;;8.73;6.68;;;;;;;18.18;58.04;101330.88;841344;23;812;-79
2023/06/07 00:09:51;;;;;;;10.45;7.05;;;;;;;18.21;58.29;101330.91;843294;23;1320;-79
2023/06/07 00:10:12;;;;;;;11.87;7.33;;;;;;;18.19;58.19;101332.66;841104;23;893;-78
2023/06/07 00:10:33;;;;;;;11.82;7.03;;;;;;;18.19;58.16;101330.91;841292;23;752;-79
2023/06/07 00:10:54;;;;;;;11.82;7.20;;;;;;;18.21;58.45;101330.91;839779;23;1212;-78
2023/06/07 00:11:14;;;;;;;13.17;7.17;;;;;;;18.14;58.32;101319.41;841216;23;992;-79
2023/06/07 00:11:36;;;;;;;12.25;7.25;;;;;;;18.12;58.23;101317.63;835448;23;907;-79
2023/06/07 00:11:57;;;;;;;11.00;6.90;;;;;;;18.18;58.38;101336.16;835907;23;1446;-79
2023/06/07 00:12:18;;;;;;;9.27;7.10;;;;;;;18.15;58.30;101331.78;837144;23;1008;-79
2023/06/07 00:12:40;;;;;;;9.70;7.30;;;;;;;18.15;58.34;101336.16;837413;23;769;-79
2023/06/07 00:13:01;;;;;;;11.32;7.70;;;;;;;18.10;58.35;101322.91;837216;23;1108;-79
2023/06/07 00:13:22;;;;;;;12.05;7.50;;;;;;;18.14;58.44;101335.25;839462;23;1235;-79
2023/06/07 00:13:43;;;;;;;11.60;7.22;;;;;;;18.11;58.36;101329.03;837439;23;913;-79
2023/06/07 00:14:04;;;;;;;11.13;6.80;;;;;;;18.15;58.34;101334.41;843493;23;1432;-79
2023/06/07 00:14:25;;;;;;;10.55;6.78;;;;;;;18.17;58.35;101337.94;847952;23;1188;-79
2023/06/07 00:14:46;;;;;;;11.55;7.00;;;;;;;18.11;58.47;101326.41;841190;23;1151;-79
2023/06/07 00:15:07;;;;;;;11.48;7.03;;;;;;;18.17;58.53;101335.28;844947;23;961;-79
2023/06/07 00:15:29;;;;;;;12.30;6.97;;;;;;;18.17;58.39;101344.97;839903;23;1229;-80
2023/06/07 00:15:50;;;;;;;12.30;6.93;;;;;;;18.09;58.49;101327.28;844988;23;1562;-79
2023/06/07 00:16:12;;;;;;;12.02;7.30;;;;;;;18.15;58.40;101342.34;839576;23;1356;-79
2023/06/07 00:16:35;;;;;;;11.93;7.18;;;;;;;18.11;58.53;101331.69;841310;23;834;-79
2023/06/07 00:16:56;;;;;;;13.18;7.03;;;;;;;18.11;58.38;101334.31;835064;23;1208;-79
2023/06/07 00:17:16;;;;;;;12.57;7.00;;;;;;;18.07;58.31;101328.16;835540;23;1119;-79
2023/06/07 00:17:40;;;;;;;11.52;7.10;;;;;;;18.05;58.31;101328.16;843400;23;1261;-79
2023/06/07 00:18:01;;;;;;;10.50;6.80;;;;;;;18.06;58.25;101334.31;847724;23;1436;-79
2023/06/07 00:18:28;;;;;;;11.63;6.85;;;;;;;18.08;58.36;101336.09;849239;23;795;-79
2023/06/07 00:18:48;;;;;;;12.27;7.05;;;;;;;18.05;58.13;101330.78;839507;23;1287;-79
2023/06/07 00:19:11;;;;;;;12.43;7.07;;;;;;;18.07;58.46;101342.25;843283;23;1274;-81
2023/06/07 00:19:31;;;;;;;12.35;7.20;;;;;;;18.05;58.25;101333.44;845552;23;878;-79
2023/06/07 00:19:52;;;;;;;11.73;7.05;;;;;;;18.04;58.57;101334.31;838512;23;1268;-79
2023/06/07 00:20:14;;;;;;;11.43;6.80;;;;;;;17.99;58.26;101328.09;841110;23;1927;-79
2023/06/07 00:20:35;;;;;;;10.80;6.78;;;;;;;17.99;58.18;101330.75;838962;23;1355;-78
2023/06/07 00:20:57;;;;;;;11.65;6.95;;;;;;;18.02;58.07;101329.91;843837;23;1149;-79
2023/06/07 00:21:20;;;;;;;13.40;7.20;;;;;;;18.05;58.33;101336.06;839671;23;1245;-79
2023/06/07 00:21:40;;;;;;;14.27;7.15;;;;;;;18.03;58.34;101335.19;845315;23;808;-79
2023/06/07 00:22:02;;;;;;;13.13;7.10;;;;;;;18.01;58.11;101333.41;842726;23;1193;-80
2023/06/07 00:22:22;;;;;;;12.77;6.97;;;;;;;18.03;58.28;101337.84;839364;23;1333;-79
2023/06/07 00:22:43;;;;;;;11.35;6.70;;;;;;;18.07;58.32;101344.88;845367;23;771;-80
2023/06/07 00:23:05;;;;;;;9.75;6.45;;;;;;;18.00;58.10;101329.00;840970;23;1059;-78
2023/06/07 00:23:28;;;;;;;9.68;6.38;;;;;;;18.02;57.99;101340.47;839683;23;1095;-79
2023/06/07 00:23:49;;;;;;;10.75;6.68;;;;;;;17.97;58.03;101335.16;838638;23;1396;-78
2023/06/07 00:24:10;;;;;;;10.25;6.78;;;;;;;17.93;58.30;101326.31;835589;23;1401;-79
2023/06/07 00:24:31;;;;;;;11.65;6.90;;;;;;;17.94;58.29;101328.09;839809;23;1391;-79
2023/06/07 00:24:52;;;;;;;11.30;6.82;;;;;;;18.00;58.19;101335.16;841023;23;1057;-79
2023/06/07 00:25:12;;;;;;;12.05;6.93;;;;;;;17.93;58.20;101333.34;845118;23;945;-78
2023/06/07 00:25:33;;;;;;;9.48;6.88;;;;;;;17.94;58.11;101332.47;847885;23;874;-79
2023/06/07 00:26:03;;;;;;;9.57;7.03;;;;;;;17.97;58.04;101337.78;843764;23;1030;-79
2023/06/07 00:26:24;;;;;;;10.05;7.10;;;;;;;17.99;58.06;101341.31;847858;23;1198;-78
2023/06/07 00:26:46;;;;;;;10.15;6.63;;;;;;;17.95;57.90;101340.41;844497;23;897;-78
2023/06/07 00:27:07;;;;;;;12.75;6.88;;;;;;;17.90;57.97;101330.69;839517;23;1908;-78
2023/06/07 00:27:28;;;;;;;12.10;6.90;;;;;;;17.92;57.76;101331.59;841100;23;886;-79
2023/06/07 00:27:48;;;;;;;12.40;7.15;;;;;;;17.94;57.87;101343.94;840909;23;932;-78
2023/06/07 00:28:09;;;;;;;11.23;7.10;;;;;;;17.88;58.03;101327.19;841094;23;1053;-78
2023/06/07 00:28:30;;;;;;;11.73;7.00;;;;;;;17.94;58.08;101337.75;837654;23;780;-79
2023/06/07 00:28:51;;;;;;;12.90;6.68;;;;;;;17.86;58.21;101328.91;841221;23;1065;-79
2023/06/07 00:29:13;;;;;;;12.33;6.57;;;;;;;17.91;58.07;101337.75;843676;23;1275;-79
2023/06/07 00:29:34;;;;;;;14.25;7.30;;;;;;;17.89;58.02;101328.94;849517;23;917;-78
2023/06/07 00:29:54;;;;;;;12.20;7.43;;;;;;;17.86;58.08;101328.91;835795;23;1331;-79
2023/06/07 00:30:18;;;;;;;12.10;7.10;;;;;;;17.88;57.87;101332.47;845117;23;926;-79
2023/06/07 00:30:39;;;;;;;8.80;6.18;;;;;;;17.88;58.17;101335.09;843983;23;1192;-79
2023/06/07 00:31:00;;;;;;;10.10;6.40;;;;;;;17.85;58.06;101335.06;838652;23;1417;-78
2023/06/07 00:31:20;;;;;;;9.52;6.65;;;;;;;17.89;58.24;101337.72;839593;23;1146;-78
2023/06/07 00:31:41;;;;;;;10.80;7.38;;;;;;;17.81;58.16;101327.13;841262;23;799;-79
2023/06/07 00:32:04;;;;;;;12.80;7.60;;;;;;;17.86;58.15;101336.81;840818;23;1041;-79
2023/06/07 00:32:24;;;;;;;13.27;7.28;;;;;;;17.83;58.14;101331.53;843908;23;1364;-78
2023/06/07 00:32:45;;;;;;;12.68;7.20;;;;;;;17.88;58.23;101337.75;839634;23;1150;-79
2023/06/07 00:33:06;;;;;;;11.82;7.15;;;;;;;17.81;57.99;101329.78;841092;23;893;-79
2023/06/07 00:33:27;;;;;;;11.70;7.65;;;;;;;17.80;58.02;101328.00;839953;23;1353;-79
2023/06/07 00:33:47;;;;;;;11.63;7.60;;;;;;;17.84;58.33;101330.66;837026;23;1025;-79
2023/06/07 00:34:08;;;;;;;9.80;7.15;;;;;;;17.86;58.47;101335.06;835242;23;1285;-79
2023/06/07 00:34:31;;;;;;;10.05;6.88;;;;;;;17.80;58.43;101324.47;835823;23;874;-78
2023/06/07 00:34:53;;;;;;;10.48;6.80;;;;;;;17.80;58.48;101333.28;837137;23;1070;-79
2023/06/07 00:35:14;;;;;;;13.05;7.28;;;;;;;17.86;58.33;101328.91;839581;23;1387;-78
2023/06/07 00:35:35;;;;;;;12.32;7.60;;;;;;;17.86;58.32;101334.19;846963;23;1410;-79
2023/06/07 00:35:56;;;;;;;11.63;7.60;;;;;;;17.81;58.22;101328.88;843650;23;1311;-79
2023/06/07 00:36:16;;;;;;;9.13;6.93;;;;;;;17.78;58.21;101332.38;842754;23;1044;-79
2023/06/07 00:36:37;;;;;;;9.52;6.70;;;;;;;17.78;58.20;101324.44;838979;23;1301;-80
2023/06/07 00:36:58;;;;;;;9.43;6.30;;;;;;;17.79;58.33;101328.88;844526;23;900;-79
2023/06/07 00:37:18;;;;;;;9.47;6.50;;;;;;;17.81;57.97;101336.78;839663;23;1367;-79
2023/06/07 00:37:41;;;;;;;10.00;6.65;;;;;;;17.81;58.34;101335.06;841231;23;869;-78
2023/06/07 00:38:04;;;;;;;10.50;6.90;;;;;;;17.83;58.41;101339.44;841119;23;1117;-79
2023/06/07 00:38:26;;;;;;;9.30;6.50;;;;;;;17.79;58.19;101334.16;835960;23;1535;-79
2023/06/07 00:38:48;;;;;;;8.38;6.10;;;;;;;17.79;58.47;101330.63;835652;23;1234;-79
2023/06/07 00:39:09;;;;;;;8.35;6.10;;;;;;;17.81;58.39;101337.69;843129;23;1312;-79
2023/06/07 00:39:29;;;;;;;8.40;6.10;;;;;;;17.79;58.33;101333.25;853461;23;900;-79
2023/06/07 00:39:50;;;;;;;9.10;6.35;;;;;;;17.79;58.26;101333.25;853417;23;999;-79
2023/06/07 00:40:12;;;;;;;10.75;6.32;;;;;;;17.84;58.28;101333.28;847832;23;1956;-79
2023/06/07 00:40:33;;;;;;;11.73;6.90;;;;;;;17.81;58.27;101337.69;845388;23;931;-79
2023/06/07 00:40:54;;;;;;;11.05;6.80;;;;;;;17.81;58.29;101332.41;845202;23;1015;-79
2023/06/07 00:41:15;;;;;;;10.60;6.80;;;;;;;17.81;58.39;101332.41;845158;23;1190;-79
2023/06/07 00:41:36;;;;;;;10.00;6.70;;;;;;;17.84;58.02;101334.19;839788;23;1383;-79
2023/06/07 00:41:57;;;;;;;11.15;6.85;;;;;;;17.81;58.25;101331.50;843645;23;1226;-79
2023/06/07 00:42:18;;;;;;;11.48;7.00;;;;;;;17.82;58.22;101333.28;845042;23;1088;-79
2023/06/07 00:42:38;;;;;;;11.88;6.90;;;;;;;17.86;58.31;101340.34;839826;23;1213;-79
2023/06/07 00:42:59;;;;;;;10.93;6.70;;;;;;;17.87;58.40;101341.22;841184;23;899;-78
2023/06/07 00:43:20;;;;;;;9.52;6.43;;;;;;;17.81;58.31;101329.78;843335;23;1222;-79
2023/06/07 00:43:40;;;;;;;9.43;6.60;;;;;;;17.84;58.45;101336.84;843880;23;1153;-78
2023/06/07 00:44:02;;;;;;;11.50;6.80;;;;;;;17.82;58.18;101338.56;839692;23;1114;-79
2023/06/07 00:44:22;;;;;;;12.15;7.03;;;;;;;17.85;58.07;101337.69;838737;23;1127;-78
2023/06/07 00:44:44;;;;;;;11.15;7.03;;;;;;;17.77;58.15;101330.59;835895;23;1190;-79
2023/06/07 00:45:06;;;;;;;10.50;7.20;;;;;;;17.75;58.14;101332.34;835128;23;1241;-79
2023/06/07 00:45:26;;;;;;;11.30;6.85;;;;;;;17.73;58.14;101323.56;835818;23;1521;-79
2023/06/07 00:45:47;;;;;;;14.27;7.00;;;;;;;17.83;58.26;101344.72;839769;23;1246;-78
2023/06/07 00:46:09;;;;;;;13.70;6.70;;;;;;;17.77;58.08;101335.03;841017;23;949;-79
2023/06/07 00:46:31;;;;;;;13.45;6.80;;;;;;;17.76;57.97;101333.25;841255;23;837;-79
2023/06/07 00:46:52;;;;;;;11.00;6.68;;;;;;;17.79;58.15;101339.44;838759;23;1242;-79
2023/06/07 00:47:14;;;;;;;11.75;6.97;;;;;;;17.80;58.17;101349.13;842270;23;1113;-79
2023/06/07 00:47:38;;;;;;;11.90;7.10;;;;;;;17.75;58.11;101342.91;843525;23;1180;-79
2023/06/07 00:48:01;;;;;;;10.32;7.03;;;;;;;17.70;58.54;101328.78;845181;23;986;-79
2023/06/07 00:48:22;;;;;;;9.20;6.82;;;;;;;17.79;58.12;101349.09;843455;23;953;-79
2023/06/07 00:48:43;;;;;;;11.40;6.65;;;;;;;17.70;58.35;101331.44;834859;23;1241;-79
2023/06/07 00:49:05;;;;;;;13.45;6.70;;;;;;;17.71;58.28;101350.81;839524;23;1065;-79
2023/06/07 00:49:26;;;;;;;13.63;6.80;;;;;;;17.66;58.29;101330.53;843770;23;1220;-79
2023/06/07 00:49:47;;;;;;;13.03;6.70;;;;;;;17.69;58.44;101342.88;835788;23;1356;-79
2023/06/07 00:50:09;;;;;;;11.70;6.80;;;;;;;17.68;58.41;101341.09;841035;23;943;-80
2023/06/07 00:50:30;;;;;;;10.50;6.57;;;;;;;17.71;58.18;101354.34;841321;23;787;-80
2023/06/07 00:50:53;;;;;;;10.90;6.40;;;;;;;17.69;58.32;101345.50;843173;23;1427;-79
2023/06/07 00:51:15;;;;;;;10.45;6.30;;;;;;;17.71;58.19;101345.53;841006;23;1068;-79
2023/06/07 00:51:36;;;;;;;10.48;6.72;;;;;;;17.66;58.15;101342.84;845238;23;770;-79
2023/06/07 00:51:57;;;;;;;10.45;6.90;;;;;;;17.64;58.40;101345.47;839498;23;1166;-79
2023/06/07 00:52:18;;;;;;;10.32;6.97;;;;;;;17.65;58.42;101347.22;835514;23;1250;-79
2023/06/07 00:52:40;;;;;;;9.88;6.65;;;;;;;17.65;58.55;101341.09;845289;23;786;-78
2023/06/07 00:53:03;;;;;;;9.02;6.50;;;;;;;17.65;58.49;101349.00;843647;23;1278;-79
2023/06/07 00:53:24;;;;;;;10.13;6.93;;;;;;;17.65;58.58;101341.97;835755;23;1235;-79
2023/06/07 00:53:48;;;;;;;10.48;7.30;;;;;;;17.66;58.63;101345.50;836836;23;935;-78
2023/06/07 00:54:09;;;;;;;10.55;7.40;;;;;;;17.61;58.50;101339.28;847211;23;1349;-79
2023/06/07 00:54:29;;;;;;;10.93;7.35;;;;;;;17.68;58.77;101347.28;845288;23;756;-79
2023/06/07 00:54:52;;;;;;;9.57;6.80;;;;;;;17.63;58.63;101342.81;838919;23;1289;-80
2023/06/07 00:55:13;;;;;;;8.32;6.47;;;;;;;17.72;58.50;101353.47;839729;23;1216;-79
2023/06/07 00:55:34;;;;;;;7.80;6.50;;;;;;;17.61;58.59;101337.53;843953;23;1054;-79
2023/06/07 00:55:55;;;;;;;7.53;6.23;;;;;;;17.63;58.53;101345.44;843710;23;1222;-79
2023/06/07 00:56:16;;;;;;;9.02;6.28;;;;;;;17.67;58.37;101344.63;843770;23;1419;-78
2023/06/07 00:56:37;;;;;;;11.95;6.40;;;;;;;17.62;58.59;101346.31;836355;23;1417;-79
2023/06/07 00:56:58;;;;;;;14.10;7.18;;;;;;;17.57;58.47;101335.75;844467;23;900;-78
2023/06/07 00:57:19;;;;;;;12.60;7.17;;;;;;;17.64;58.75;101345.47;839716;23;1118;-78
2023/06/07 00:57:41;;;;;;;11.70;7.30;;;;;;;17.62;58.88;101343.69;839979;23;913;-79
2023/06/07 00:58:01;;;;;;;10.82;7.07;;;;;;;17.66;59.03;101349.00;840931;23;962;-78
2023/06/07 00:58:22;;;;;;;12.57;7.25;;;;;;;17.58;58.65;101334.84;835303;23;1153;-79
2023/06/07 00:58:45;;;;;;;12.50;7.30;;;;;;;17.59;58.68;101335.75;839780;23;1128;-78
2023/06/07 00:59:06;;;;;;;10.85;6.72;;;;;;;17.59;58.73;101341.03;838835;23;1429;-78
2023/06/07 00:59:27;;;;;;;9.68;7.00;;;;;;;17.57;58.87;101334.88;841205;23;731;-79
2023/06/07 00:59:49;;;;;;;11.00;7.15;;;;;;;17.59;59.06;101335.75;835674;23;1180;-79
2023/06/07 01:00:13;;;;;;;11.02;7.32;;;;;;;17.60;58.98;101343.69;838746;23;1362;-79
2023/06/07 01:00:34;;;;;;;11.60;7.13;;;;;;;17.63;58.90;101351.63;841126;23;914;-79
2023/06/07 01:00:58;;;;;;;10.07;6.63;;;;;;;17.62;59.04;101338.41;835587;23;1131;-78
2023/06/07 01:01:33;;;;;;;10.95;6.70;;;;;;;17.67;58.75;101345.50;837055;23;1084;-79
2023/06/07 01:01:55;;;;;;;10.85;6.70;;;;;;;17.68;58.99;101347.28;835938;23;1370;-79
2023/06/07 01:02:16;;;;;;;10.48;6.78;;;;;;;17.65;58.78;101346.38;839678;23;1349;-78
2023/06/07 01:02:38;;;;;;;13.10;7.10;;;;;;;17.70;58.78;101351.69;837228;23;947;-78
2023/06/07 01:02:59;;;;;;;12.90;6.95;;;;;;;17.66;58.67;101346.34;837099;23;972;-78
2023/06/07 01:03:21;;;;;;;13.05;6.80;;;;;;;17.62;58.71;101339.31;839194;23;1385;-79
2023/06/07 01:03:44;;;;;;;12.57;6.63;;;;;;;17.65;58.67;101347.22;841358;23;791;-78
2023/06/07 01:04:05;;;;;;;13.10;6.50;;;;;;;17.68;58.62;101347.28;845044;23;934;-79
2023/06/07 01:04:29;;;;;;;12.50;6.30;;;;;;;17.68;58.58;101349.03;839477;23;1424;-79
2023/06/07 01:04:52;;;;;;;11.55;6.57;;;;;;;17.69;58.58;101348.16;841186;23;985;-79
2023/06/07 01:05:14;;;;;;;12.75;6.63;;;;;;;17.67;58.72;101350.78;839688;23;1357;-78
2023/06/07 01:05:35;;;;;;;10.95;6.90;;;;;;;17.61;58.66;101334.91;835976;23;1494;-79
2023/06/07 01:05:58;;;;;;;12.25;7.03;;;;;;;17.60;58.58;101337.53;835675;23;1349;-79
2023/06/07 01:06:21;;;;;;;11.00;6.70;;;;;;;17.62;58.48;101336.66;836863;23;975;-78
2023/06/07 01:06:42;;;;;;;12.40;6.80;;;;;;;17.60;58.59;101338.41;839840;23;1354;-78
2023/06/07 01:07:03;;;;;;;13.48;6.97;;;;;;;17.63;58.60;101350.72;836185;23;947;-78
2023/06/07 01:07:24;;;;;;;12.68;6.97;;;;;;;17.60;58.64;101335.78;839721;23;1264;-78
2023/06/07 01:07:47;;;;;;;13.23;6.70;;;;;;;17.58;58.48;101341.91;840987;23;1060;-79
2023/06/07 01:08:09;;;;;;;11.95;6.80;;;;;;;17.62;58.50;101347.22;840972;23;1009;-78
2023/06/07 01:08:32;;;;;;;10.77;7.07;;;;;;;17.60;58.63;101342.81;845218;23;861;-79
2023/06/07 01:08:53;;;;;;;9.05;6.53;;;;;;;17.58;58.59;101334.84;842499;23;1152;-80
2023/06/07 01:09:16;;;;;;;9.70;6.40;;;;;;;17.67;58.52;101347.25;840802;23;886;-79
2023/06/07 01:09:37;;;;;;;10.40;6.50;;;;;;;17.64;58.49;101345.47;838581;23;1322;-79
2023/06/07 01:09:57;;;;;;;10.10;6.40;;;;;;;17.58;58.35;101334.00;840906;23;1140;-78
2023/06/07 01:10:18;;;;;;;10.60;6.63;;;;;;;17.57;58.54;101337.50;838597;23;1129;-78
2023/06/07 01:10:39;;;;;;;10.95;6.30;;;;;;;17.64;58.49;101350.75;839760;23;1372;-78
2023/06/07 01:11:04;;;;;;;10.05;6.45;;;;;;;17.61;58.61;101347.19;835353;23;1119;-79
2023/06/07 01:11:25;;;;;;;9.75;6.55;;;;;;;17.64;58.29;101356.03;841127;23;877;-78
2023/06/07 01:11:49;;;;;;;8.88;6.75;;;;;;;17.58;58.32;101342.78;839691;23;1343;-77
2023/06/07 01:12:16;;;;;;;9.63;6.70;;;;;;;17.58;58.25;101339.28;839577;23;1349;-78
2023/06/07 01:12:38;;;;;;;9.85;6.40;;;;;;;17.50;58.16;101329.53;837299;23;922;-78
2023/06/07 01:13:02;;;;;;;10.45;6.50;;;;;;;17.58;58.08;101350.69;835771;23;1299;-80
2023/06/07 01:13:24;;;;;;;9.68;6.45;;;;;;;17.63;58.16;101356.91;839376;23;1204;-79
2023/06/07 01:13:45;;;;;;;10.77;6.45;;;;;;;17.62;58.24;101356.88;841180;23;1137;-79
2023/06/07 01:14:07;;;;;;;10.07;6.40;;;;;;;17.60;58.29;101353.34;838250;23;1412;-79
2023/06/07 01:14:28;;;;;;;10.55;6.43;;;;;;;17.57;58.24;101348.06;839986;23;1229;-78
2023/06/07 01:14:50;;;;;;;10.27;5.80;;;;;;;17.59;58.17;101351.59;837154;23;965;-78
2023/06/07 01:15:12;;;;;;;10.73;6.13;;;;;;;17.59;58.17;101360.41;836987;23;938;-79
2023/06/07 01:15:33;;;;;;;12.30;6.78;;;;;;;17.46;58.19;101338.28;837222;23;754;-79
2023/06/07 01:15:54;;;;;;;10.50;6.80;;;;;;;17.51;58.09;101344.50;841042;23;1045;-79
2023/06/07 01:16:15;;;;;;;10.13;6.68;;;;;;;17.49;58.29;101351.53;835566;23;1153;-78
2023/06/07 01:16:38;;;;;;;8.68;6.38;;;;;;;17.43;58.20;101340.91;835326;23;1263;-78
2023/06/07 01:17:02;;;;;;;9.10;6.20;;;;;;;17.42;58.28;101339.16;840331;23;917;-78
2023/06/07 01:17:24;;;;;;;8.63;6.10;;;;;;;17.47;58.36;101353.28;841126;23;978;-78
2023/06/07 01:17:47;;;;;;;9.07;6.00;;;;;;;17.44;58.44;101352.34;839461;23;1401;-78
2023/06/07 01:18:09;;;;;;;10.98;6.30;;;;;;;17.42;58.54;101336.50;838964;23;1345;-78
2023/06/07 01:18:30;;;;;;;10.88;6.20;;;;;;;17.45;58.40;101355.00;845314;23;803;-79
2023/06/07 01:18:51;;;;;;;10.18;6.00;;;;;;;17.44;58.49;101345.31;845101;23;970;-78
2023/06/07 01:19:18;;;;;;;8.05;5.90;;;;;;;17.42;58.32;101341.78;840969;23;1080;-79
2023/06/07 01:19:42;;;;;;;8.50;6.13;;;;;;;17.42;58.35;101344.41;835882;23;881;-79
2023/06/07 01:20:04;;;;;;;9.57;6.60;;;;;;;17.41;58.44;101337.38;836815;23;1136;-79
2023/06/07 01:20:26;;;;;;;9.60;6.70;;;;;;;17.40;58.38;101340.91;839666;23;1939;-79
2023/06/07 01:20:54;;;;;;;9.93;6.90;;;;;;;17.44;58.61;101342.66;842655;23;1344;-78
2023/06/07 01:21:20;;;;;;;10.35;7.03;;;;;;;17.49;58.39;101350.63;843091;23;1014;-78
2023/06/07 01:21:42;;;;;;;9.32;7.00;;;;;;;17.47;58.41;101353.28;843524;23;1450;-79
2023/06/07 01:22:04;;;;;;;8.85;6.95;;;;;;;17.42;58.45;101341.78;844921;23;1174;-78
2023/06/07 01:22:27;;;;;;;9.63;6.75;;;;;;;17.41;58.31;101340.03;845292;23;850;-78
2023/06/07 01:22:51;;;;;;;9.82;6.15;;;;;;;17.41;58.33;101337.38;843644;23;1227;-78
2023/06/07 01:23:12;;;;;;;9.50;5.80;;;;;;;17.44;58.44;101342.66;847732;23;1918;-78
2023/06/07 01:23:34;;;;;;;10.40;6.05;;;;;;;17.40;58.26;101343.53;847392;23;1178;-78
2023/06/07 01:23:56;;;;;;;11.40;6.80;;;;;;;17.41;58.35;101337.38;843664;23;1262;-78
2023/06/07 01:24:18;;;;;;;10.80;6.68;;;;;;;17.40;58.50;101346.16;841021;23;1091;-77
2023/06/07 01:24:42;;;;;;;10.93;6.80;;;;;;;17.39;58.64;101341.75;838208;23;1324;-78
2023/06/07 01:25:04;;;;;;;9.82;6.47;;;;;;;17.36;58.33;101336.44;842927;23;1063;-78
2023/06/07 01:25:25;;;;;;;10.30;6.70;;;;;;;17.34;58.41;101330.28;845251;23;926;-79
2023/06/07 01:25:46;;;;;;;8.48;6.50;;;;;;;17.33;58.50;101331.16;843578;23;1296;-78
2023/06/07 01:26:07;;;;;;;9.60;6.60;;;;;;;17.35;58.34;101332.94;844972;23;1149;-78
2023/06/07 01:26:29;;;;;;;8.48;6.30;;;;;;;17.32;58.27;101337.31;843877;23;1368;-79
2023/06/07 01:26:57;;;;;;;9.25;6.38;;;;;;;17.35;58.39;101334.69;842912;23;1332;-79
2023/06/07 01:27:21;;;;;;;9.23;6.50;;;;;;;17.34;58.34;101338.19;845225;23;1040;-78
2023/06/07 01:27:45;;;;;;;9.45;6.75;;;;;;;17.38;58.23;101340.88;843772;23;1188;-78
2023/06/07 01:28:08;;;;;;;10.30;6.40;;;;;;;17.33;58.47;101344.34;845023;23;1038;-78
2023/06/07 01:28:33;;;;;;;11.23;6.80;;;;;;;17.35;58.39;101348.78;843868;23;1129;-78
2023/06/07 01:28:55;;;;;;;10.65;6.90;;;;;;;17.31;58.30;101346.06;841015;23;984;-77
2023/06/07 01:29:16;;;;;;;12.50;7.30;;;;;;;17.30;58.02;101337.28;835646;23;1265;-78
2023/06/07 01:29:38;;;;;;;11.40;7.15;;;;;;;17.34;58.32;101354.88;835480;23;912;-78
2023/06/07 01:30:00;;;;;;;12.27;6.80;;;;;;;17.31;58.39;101343.44;840955;23;1095;-78
2023/06/07 01:30:22;;;;;;;10.70;6.47;;;;;;;17.35;58.29;101350.50;839988;23;1382;-78
2023/06/07 01:30:43;;;;;;;9.90;6.13;;;;;;;17.32;58.33;101345.22;843922;23;1355;-78
2023/06/07 01:31:04;;;;;;;9.95;6.30;;;;;;;17.28;58.33;101341.66;844918;23;1167;-78
2023/06/07 01:31:25;;;;;;;10.20;6.40;;;;;;;17.32;58.37;101345.22;841267;23;909;-78
2023/06/07 01:31:49;;;;;;;10.40;6.53;;;;;;;17.32;58.21;101347.84;841140;23;1143;-80
2023/06/07 01:32:12;;;;;;;11.40;6.80;;;;;;;17.24;58.11;101330.22;843608;23;1318;-79
2023/06/07 01:32:33;;;;;;;12.27;7.28;;;;;;;17.29;58.21;101339.91;843480;23;1204;-78
2023/06/07 01:32:54;;;;;;;11.40;6.90;;;;;;;17.28;58.31;101331.13;844106;23;1421;-78
2023/06/07 01:33:16;;;;;;;10.55;6.82;;;;;;;17.31;58.37;101332.88;839539;23;1291;-79
2023/06/07 01:33:38;;;;;;;8.80;6.55;;;;;;;17.29;58.38;101337.25;842929;23;889;-80
2023/06/07 01:33:59;;;;;;;9.68;7.03;;;;;;;17.30;58.47;101349.56;849161;23;1129;-79
2023/06/07 01:34:23;;;;;;;9.10;6.78;;;;;;;17.32;58.37;101347.84;843277;23;1035;-78
2023/06/07 01:34:46;;;;;;;9.57;6.22;;;;;;;17.32;58.39;101345.22;845025;23;1124;-79
2023/06/07 01:35:09;;;;;;;12.40;6.22;;;;;;;17.24;58.40;101338.13;845059;23;886;-79
2023/06/07 01:35:31;;;;;;;13.05;6.57;;;;;;;17.31;58.56;101352.25;839735;23;1302;-79
2023/06/07 01:35:55;;;;;;;13.95;6.97;;;;;;;17.31;58.48;101356.63;836908;23;968;-79
2023/06/07 01:36:17;;;;;;;14.25;7.10;;;;;;;17.31;58.46;101348.69;835637;23;1246;-79
2023/06/07 01:36:41;;;;;;;14.05;6.80;;;;;;;17.28;58.37;101346.94;835785;23;1098;-79
2023/06/07 01:37:02;;;;;;;12.35;6.55;;;;;;;17.24;58.49;101340.75;840342;23;1092;-79
2023/06/07 01:37:24;;;;;;;11.38;6.45;;;;;;;17.24;58.67;101338.13;845246;23;838;-79
2023/06/07 01:37:48;;;;;;;11.57;6.80;;;;;;;17.24;58.47;101335.47;849055;23;1004;-80
2023/06/07 01:38:09;;;;;;;9.65;6.90;;;;;;;17.23;58.65;101336.31;849060;23;1022;-79
2023/06/07 01:38:31;;;;;;;11.13;7.32;;;;;;;17.20;58.69;101336.28;843775;23;1207;-79
2023/06/07 01:38:54;;;;;;;10.02;6.70;;;;;;;17.26;58.41;101344.28;843177;23;1359;-79
2023/06/07 01:39:17;;;;;;;9.73;6.80;;;;;;;17.18;58.64;101335.38;845056;23;1115;-78
2023/06/07 01:39:40;;;;;;;10.27;7.20;;;;;;;17.25;58.80;101337.25;839388;23;1946;-78
2023/06/07 01:40:05;;;;;;;10.77;7.50;;;;;;;17.23;58.88;101341.59;843186;23;1402;-79
2023/06/07 01:40:26;;;;;;;12.68;7.45;;;;;;;17.26;58.58;101344.28;843702;23;1936;-79
2023/06/07 01:40:50;;;;;;;12.07;7.30;;;;;;;17.26;58.65;101352.19;845152;23;1143;-78
2023/06/07 01:41:12;;;;;;;11.52;7.13;;;;;;;17.25;58.51;101337.25;843555;23;1367;-79
2023/06/07 01:41:34;;;;;;;10.43;6.53;;;;;;;17.25;58.69;101338.97;841319;23;787;-79
2023/06/07 01:41:57;;;;;;;10.30;6.43;;;;;;;17.22;58.83;101336.34;835485;23;1183;-78
2023/06/07 01:42:19;;;;;;;11.50;6.75;;;;;;;17.20;58.71;101332.78;835537;23;1180;-79
2023/06/07 01:42:41;;;;;;;10.10;6.65;;;;;;;17.15;58.63;101337.97;837261;23;923;-79
2023/06/07 01:43:02;;;;;;;10.57;6.90;;;;;;;17.13;58.60;101332.72;841033;23;1125;-78
2023/06/07 01:43:23;;;;;;;10.48;6.93;;;;;;;17.16;58.66;101334.50;839197;23;1042;-79